sensor_id;sensor_type;location;lat;lon;timestamp;temperature;humidity
25108;DHT22;13090;53.422;7.670;2023-07-13T00:03:10;18.50;69.60
25108;DHT22;13090;53.422;7.670;2023-07-13T00:08:32;18.50;69.90
25108;DHT22;13090;53.422;7.670;2023-07-13T00:13:53;18.50;69.90
25108;DHT22;13090;53.422;7.670;2023-07-13T00:19:16;18.50;70.20
25108;DHT22;13090;53.422;7.670;2023-07-13T00:24:37;18.40;70.40
25108;DHT22;13090;53.422;7.670;2023-07-13T00:29:58;18.40;70.40
25108;DHT22;13090;53.422;7.670;2023-07-13T00:35:20;18.40;70.50
25108;DHT22;13090;53.422;7.670;2023-07-13T00:40:41;18.40;70.80
25108;DHT22;13090;53.422;7.670;2023-07-13T00:46:14;18.30;70.90
25108;DHT22;13090;53.422;7.670;2023-07-13T00:51:40;18.10;72.00
25108;DHT22;13090;53.422;7.670;2023-07-13T00:57:04;18.00;71.90
25108;DHT22;13090;53.422;7.670;2023-07-13T01:02:27;17.90;71.70
25108;DHT22;13090;53.422;7.670;2023-07-13T01:07:51;17.70;72.00
25108;DHT22;13090;53.422;7.670;2023-07-13T01:13:12;17.60;72.50
25108;DHT22;13090;53.422;7.670;2023-07-13T01:18:33;17.50;72.80
25108;DHT22;13090;53.422;7.670;2023-07-13T01:23:56;17.40;73.20
25108;DHT22;13090;53.422;7.670;2023-07-13T01:29:16;17.40;73.80
25108;DHT22;13090;53.422;7.670;2023-07-13T01:34:37;17.30;73.70
25108;DHT22;13090;53.422;7.670;2023-07-13T01:40:01;17.30;73.80
25108;DHT22;13090;53.422;7.670;2023-07-13T01:45:22;17.30;74.60
25108;DHT22;13090;53.422;7.670;2023-07-13T01:50:42;17.30;74.40
25108;DHT22;13090;53.422;7.670;2023-07-13T01:56:05;17.30;74.60
25108;DHT22;13090;53.422;7.670;2023-07-13T02:01:26;17.40;75.30
25108;DHT22;13090;53.422;7.670;2023-07-13T02:06:47;17.50;75.20
25108;DHT22;13090;53.422;7.670;2023-07-13T02:12:10;17.60;75.20
25108;DHT22;13090;53.422;7.670;2023-07-13T02:17:30;17.60;75.30
25108;DHT22;13090;53.422;7.670;2023-07-13T02:22:51;17.70;74.90
25108;DHT22;13090;53.422;7.670;2023-07-13T02:28:14;17.80;75.20
25108;DHT22;13090;53.422;7.670;2023-07-13T02:33:35;17.90;75.30
25108;DHT22;13090;53.422;7.670;2023-07-13T02:38:57;18.00;75.20
25108;DHT22;13090;53.422;7.670;2023-07-13T02:44:20;18.10;75.10
25108;DHT22;13090;53.422;7.670;2023-07-13T02:49:41;18.10;75.50
25108;DHT22;13090;53.422;7.670;2023-07-13T02:55:02;18.20;75.40
25108;DHT22;13090;53.422;7.670;2023-07-13T03:00:24;18.30;75.40
25108;DHT22;13090;53.422;7.670;2023-07-13T03:05:45;18.30;75.70
25108;DHT22;13090;53.422;7.670;2023-07-13T03:11:10;18.30;75.60
25108;DHT22;13090;53.422;7.670;2023-07-13T03:16:33;18.40;76.00
25108;DHT22;13090;53.422;7.670;2023-07-13T03:21:54;18.50;76.10
25108;DHT22;13090;53.422;7.670;2023-07-13T03:27:15;18.50;75.80
25108;DHT22;13090;53.422;7.670;2023-07-13T03:32:37;18.50;76.00
25108;DHT22;13090;53.422;7.670;2023-07-13T03:37:58;18.50;76.30
25108;DHT22;13090;53.422;7.670;2023-07-13T03:43:19;18.50;76.20
25108;DHT22;13090;53.422;7.670;2023-07-13T03:48:43;18.50;76.40
25108;DHT22;13090;53.422;7.670;2023-07-13T03:54:04;18.50;76.80
25108;DHT22;13090;53.422;7.670;2023-07-13T03:59:24;18.60;76.60
25108;DHT22;13090;53.422;7.670;2023-07-13T04:04:46;18.60;76.70
25108;DHT22;13090;53.422;7.670;2023-07-13T04:10:07;18.60;76.90
25108;DHT22;13090;53.422;7.670;2023-07-13T04:15:30;18.70;77.00
25108;DHT22;13090;53.422;7.670;2023-07-13T04:20:53;18.70;77.20
25108;DHT22;13090;53.422;7.670;2023-07-13T04:26:14;18.70;77.30
25108;DHT22;13090;53.422;7.670;2023-07-13T04:31:35;18.80;77.30
25108;DHT22;13090;53.422;7.670;2023-07-13T04:36:57;18.80;77.40
25108;DHT22;13090;53.422;7.670;2023-07-13T04:42:18;19.00;78.60
25108;DHT22;13090;53.422;7.670;2023-07-13T04:47:39;19.10;77.50
25108;DHT22;13090;53.422;7.670;2023-07-13T04:53:01;19.10;77.40
25108;DHT22;13090;53.422;7.670;2023-07-13T04:58:24;19.20;77.80
25108;DHT22;13090;53.422;7.670;2023-07-13T05:03:45;19.30;78.20
25108;DHT22;13090;53.422;7.670;2023-07-13T05:09:07;19.50;78.30
25108;DHT22;13090;53.422;7.670;2023-07-13T05:14:28;19.70;78.10
25108;DHT22;13090;53.422;7.670;2023-07-13T05:19:49;20.00;77.90
25108;DHT22;13090;53.422;7.670;2023-07-13T05:25:11;20.20;78.10
25108;DHT22;13090;53.422;7.670;2023-07-13T05:30:32;20.50;77.90
25108;DHT22;13090;53.422;7.670;2023-07-13T05:35:53;20.60;77.40
25108;DHT22;13090;53.422;7.670;2023-07-13T05:41:15;20.80;76.60
25108;DHT22;13090;53.422;7.670;2023-07-13T05:46:37;20.80;76.60
25108;DHT22;13090;53.422;7.670;2023-07-13T05:51:57;20.80;76.80
25108;DHT22;13090;53.422;7.670;2023-07-13T05:57:20;21.10;77.20
25108;DHT22;13090;53.422;7.670;2023-07-13T06:02:41;21.20;77.40
25108;DHT22;13090;53.422;7.670;2023-07-13T06:08:02;21.30;76.10
25108;DHT22;13090;53.422;7.670;2023-07-13T06:13:24;21.40;76.10
25108;DHT22;13090;53.422;7.670;2023-07-13T06:18:46;21.40;75.80
25108;DHT22;13090;53.422;7.670;2023-07-13T06:24:07;21.40;75.80
25108;DHT22;13090;53.422;7.670;2023-07-13T06:29:29;21.50;76.50
25108;DHT22;13090;53.422;7.670;2023-07-13T06:34:50;21.90;77.40
25108;DHT22;13090;53.422;7.670;2023-07-13T06:40:12;22.60;77.10
25108;DHT22;13090;53.422;7.670;2023-07-13T06:45:41;23.50;75.40
25108;DHT22;13090;53.422;7.670;2023-07-13T06:51:02;24.20;72.70
25108;DHT22;13090;53.422;7.670;2023-07-13T06:56:23;24.70;71.60
25108;DHT22;13090;53.422;7.670;2023-07-13T07:01:45;25.00;71.10
25108;DHT22;13090;53.422;7.670;2023-07-13T07:07:07;25.50;69.60
25108;DHT22;13090;53.422;7.670;2023-07-13T07:12:27;26.00;68.70
25108;DHT22;13090;53.422;7.670;2023-07-13T07:17:50;26.30;67.50
25108;DHT22;13090;53.422;7.670;2023-07-13T07:23:11;26.70;64.60
25108;DHT22;13090;53.422;7.670;2023-07-13T07:28:31;26.90;64.70
25108;DHT22;13090;53.422;7.670;2023-07-13T07:33:57;26.90;63.90
25108;DHT22;13090;53.422;7.670;2023-07-13T07:39:18;27.00;64.20
25108;DHT22;13090;53.422;7.670;2023-07-13T07:44:40;27.40;64.00
25108;DHT22;13090;53.422;7.670;2023-07-13T07:50:03;27.80;62.50
25108;DHT22;13090;53.422;7.670;2023-07-13T07:55:24;28.30;60.30
25108;DHT22;13090;53.422;7.670;2023-07-13T08:00:48;28.80;59.10
25108;DHT22;13090;53.422;7.670;2023-07-13T08:06:13;29.20;58.20
25108;DHT22;13090;53.422;7.670;2023-07-13T08:11:55;29.50;56.10
25108;DHT22;13090;53.422;7.670;2023-07-13T08:17:19;29.50;54.90
25108;DHT22;13090;53.422;7.670;2023-07-13T08:22:41;29.40;55.00
25108;DHT22;13090;53.422;7.670;2023-07-13T08:28:03;29.60;55.50
25108;DHT22;13090;53.422;7.670;2023-07-13T08:33:24;29.80;54.60
25108;DHT22;13090;53.422;7.670;2023-07-13T08:38:46;29.60;53.40
25108;DHT22;13090;53.422;7.670;2023-07-13T08:44:16;29.60;53.60
25108;DHT22;13090;53.422;7.670;2023-07-13T08:49:39;29.90;52.30
25108;DHT22;13090;53.422;7.670;2023-07-13T08:55:13;30.20;51.20
25108;DHT22;13090;53.422;7.670;2023-07-13T09:00:41;30.30;49.30
25108;DHT22;13090;53.422;7.670;2023-07-13T09:06:03;30.50;49.70
25108;DHT22;13090;53.422;7.670;2023-07-13T09:11:36;30.80;49.70
25108;DHT22;13090;53.422;7.670;2023-07-13T09:16:59;31.00;47.90
25108;DHT22;13090;53.422;7.670;2023-07-13T09:22:21;31.20;49.20
25108;DHT22;13090;53.422;7.670;2023-07-13T09:27:46;31.40;47.70
25108;DHT22;13090;53.422;7.670;2023-07-13T09:33:08;31.60;46.30
25108;DHT22;13090;53.422;7.670;2023-07-13T09:38:30;31.70;46.80
25108;DHT22;13090;53.422;7.670;2023-07-13T09:44:13;31.70;45.80
25108;DHT22;13090;53.422;7.670;2023-07-13T09:49:35;31.70;45.20
25108;DHT22;13090;53.422;7.670;2023-07-13T09:54:56;31.30;44.70
25108;DHT22;13090;53.422;7.670;2023-07-13T10:00:24;30.50;43.90
25108;DHT22;13090;53.422;7.670;2023-07-13T10:05:47;29.90;46.10
25108;DHT22;13090;53.422;7.670;2023-07-13T10:11:11;29.60;47.10
25108;DHT22;13090;53.422;7.670;2023-07-13T10:16:35;29.80;47.00
25108;DHT22;13090;53.422;7.670;2023-07-13T10:21:57;29.90;46.00
25108;DHT22;13090;53.422;7.670;2023-07-13T10:27:20;29.80;46.50
25108;DHT22;13090;53.422;7.670;2023-07-13T10:32:43;29.70;46.80
25108;DHT22;13090;53.422;7.670;2023-07-13T10:38:07;29.40;45.70
25108;DHT22;13090;53.422;7.670;2023-07-13T10:43:35;28.60;45.70
25108;DHT22;13090;53.422;7.670;2023-07-13T10:49:02;27.80;46.30
25108;DHT22;13090;53.422;7.670;2023-07-13T10:54:27;27.10;46.90
25108;DHT22;13090;53.422;7.670;2023-07-13T11:05:31;26.40;49.30
25108;DHT22;13090;53.422;7.670;2023-07-13T11:10:54;26.40;50.90
25108;DHT22;13090;53.422;7.670;2023-07-13T11:16:34;26.40;52.10
25108;DHT22;13090;53.422;7.670;2023-07-13T11:22:11;26.50;53.10
25108;DHT22;13090;53.422;7.670;2023-07-13T11:27:40;26.30;51.60
25108;DHT22;13090;53.422;7.670;2023-07-13T11:33:09;25.80;51.50
25108;DHT22;13090;53.422;7.670;2023-07-13T11:38:37;25.20;52.50
25108;DHT22;13090;53.422;7.670;2023-07-13T11:44:07;24.30;54.40
25108;DHT22;13090;53.422;7.670;2023-07-13T11:49:30;23.40;55.10
25108;DHT22;13090;53.422;7.670;2023-07-13T11:54:56;22.50;55.90
25108;DHT22;13090;53.422;7.670;2023-07-13T12:00:22;21.70;57.10
25108;DHT22;13090;53.422;7.670;2023-07-13T12:05:56;21.10;58.80
25108;DHT22;13090;53.422;7.670;2023-07-13T12:11:18;20.80;60.40
25108;DHT22;13090;53.422;7.670;2023-07-13T12:16:41;20.60;60.90
25108;DHT22;13090;53.422;7.670;2023-07-13T12:22:02;20.50;62.80
25108;DHT22;13090;53.422;7.670;2023-07-13T12:27:26;20.60;63.70
25108;DHT22;13090;53.422;7.670;2023-07-13T12:32:56;20.90;65.30
25108;DHT22;13090;53.422;7.670;2023-07-13T12:38:17;21.40;67.60
25108;DHT22;13090;53.422;7.670;2023-07-13T12:43:39;21.90;66.60
25108;DHT22;13090;53.422;7.670;2023-07-13T12:49:00;22.30;66.40
25108;DHT22;13090;53.422;7.670;2023-07-13T12:54:39;22.60;66.40
25108;DHT22;13090;53.422;7.670;2023-07-13T13:00:31;23.00;66.20
25108;DHT22;13090;53.422;7.670;2023-07-13T13:06:00;23.10;66.70
25108;DHT22;13090;53.422;7.670;2023-07-13T13:11:24;23.00;66.60
25108;DHT22;13090;53.422;7.670;2023-07-13T13:16:51;23.00;66.40
25108;DHT22;13090;53.422;7.670;2023-07-13T13:22:13;23.00;68.00
25108;DHT22;13090;53.422;7.670;2023-07-13T13:27:34;23.30;68.00
25108;DHT22;13090;53.422;7.670;2023-07-13T13:32:56;23.60;68.20
25108;DHT22;13090;53.422;7.670;2023-07-13T13:38:20;24.00;67.60
25108;DHT22;13090;53.422;7.670;2023-07-13T13:43:42;24.20;67.70
25108;DHT22;13090;53.422;7.670;2023-07-13T13:49:05;24.60;67.50
25108;DHT22;13090;53.422;7.670;2023-07-13T13:54:26;25.00;66.60
25108;DHT22;13090;53.422;7.670;2023-07-13T13:59:46;25.20;65.30
25108;DHT22;13090;53.422;7.670;2023-07-13T14:05:13;25.40;64.70
25108;DHT22;13090;53.422;7.670;2023-07-13T14:10:34;25.50;63.80
25108;DHT22;13090;53.422;7.670;2023-07-13T14:15:55;25.60;63.50
25108;DHT22;13090;53.422;7.670;2023-07-13T14:21:19;25.80;62.20
25108;DHT22;13090;53.422;7.670;2023-07-13T14:26:42;26.00;62.70
25108;DHT22;13090;53.422;7.670;2023-07-13T14:32:03;26.30;61.80
25108;DHT22;13090;53.422;7.670;2023-07-13T14:37:27;26.50;60.70
25108;DHT22;13090;53.422;7.670;2023-07-13T14:42:48;26.70;59.60
25108;DHT22;13090;53.422;7.670;2023-07-13T14:48:14;26.70;58.90
25108;DHT22;13090;53.422;7.670;2023-07-13T14:53:38;26.80;57.50
25108;DHT22;13090;53.422;7.670;2023-07-13T14:58:59;26.80;56.80
25108;DHT22;13090;53.422;7.670;2023-07-13T15:04:19;26.60;56.30
25108;DHT22;13090;53.422;7.670;2023-07-13T15:09:42;26.50;55.90
25108;DHT22;13090;53.422;7.670;2023-07-13T15:15:03;26.40;55.70
25108;DHT22;13090;53.422;7.670;2023-07-13T15:20:26;26.30;55.40
25108;DHT22;13090;53.422;7.670;2023-07-13T15:25:53;26.20;55.70
25108;DHT22;13090;53.422;7.670;2023-07-13T15:31:22;26.00;55.50
25108;DHT22;13090;53.422;7.670;2023-07-13T15:36:43;25.90;55.50
25108;DHT22;13090;53.422;7.670;2023-07-13T15:42:07;25.80;55.50
25108;DHT22;13090;53.422;7.670;2023-07-13T15:47:28;25.70;55.50
25108;DHT22;13090;53.422;7.670;2023-07-13T15:52:51;25.70;55.90
25108;DHT22;13090;53.422;7.670;2023-07-13T15:58:14;25.80;55.30
25108;DHT22;13090;53.422;7.670;2023-07-13T16:03:35;25.80;55.40
25108;DHT22;13090;53.422;7.670;2023-07-13T16:08:57;25.80;55.40
25108;DHT22;13090;53.422;7.670;2023-07-13T16:14:20;25.70;55.20
25108;DHT22;13090;53.422;7.670;2023-07-13T16:19:41;25.60;55.30
25108;DHT22;13090;53.422;7.670;2023-07-13T16:25:16;25.60;55.60
25108;DHT22;13090;53.422;7.670;2023-07-13T16:30:39;25.60;55.70
25108;DHT22;13090;53.422;7.670;2023-07-13T16:36:00;25.60;55.90
25108;DHT22;13090;53.422;7.670;2023-07-13T16:41:21;25.60;55.70
25108;DHT22;13090;53.422;7.670;2023-07-13T16:46:43;25.60;55.70
25108;DHT22;13090;53.422;7.670;2023-07-13T16:52:05;25.60;55.50
25108;DHT22;13090;53.422;7.670;2023-07-13T16:57:30;25.60;55.70
25108;DHT22;13090;53.422;7.670;2023-07-13T17:02:53;25.60;55.50
25108;DHT22;13090;53.422;7.670;2023-07-13T17:08:21;25.50;55.60
25108;DHT22;13090;53.422;7.670;2023-07-13T17:13:42;25.40;55.50
25108;DHT22;13090;53.422;7.670;2023-07-13T17:19:11;25.40;55.40
25108;DHT22;13090;53.422;7.670;2023-07-13T17:24:33;25.30;55.20
25108;DHT22;13090;53.422;7.670;2023-07-13T17:29:55;25.10;55.30
25108;DHT22;13090;53.422;7.670;2023-07-13T17:35:23;25.00;55.70
25108;DHT22;13090;53.422;7.670;2023-07-13T17:40:44;25.00;56.10
25108;DHT22;13090;53.422;7.670;2023-07-13T17:46:11;24.90;56.10
25108;DHT22;13090;53.422;7.670;2023-07-13T17:51:34;24.80;56.00
25108;DHT22;13090;53.422;7.670;2023-07-13T17:56:55;24.70;56.10
25108;DHT22;13090;53.422;7.670;2023-07-13T18:02:18;24.70;56.30
25108;DHT22;13090;53.422;7.670;2023-07-13T18:07:42;24.60;56.30
25108;DHT22;13090;53.422;7.670;2023-07-13T18:13:03;24.60;56.30
25108;DHT22;13090;53.422;7.670;2023-07-13T18:18:25;24.40;56.30
25108;DHT22;13090;53.422;7.670;2023-07-13T18:23:48;24.30;56.50
25108;DHT22;13090;53.422;7.670;2023-07-13T18:29:09;24.20;57.40
25108;DHT22;13090;53.422;7.670;2023-07-13T18:34:33;24.10;57.00
25108;DHT22;13090;53.422;7.670;2023-07-13T18:39:57;24.00;57.10
25108;DHT22;13090;53.422;7.670;2023-07-13T18:45:18;23.90;56.90
25108;DHT22;13090;53.422;7.670;2023-07-13T18:50:39;23.80;57.10
25108;DHT22;13090;53.422;7.670;2023-07-13T18:56:02;23.70;57.20
25108;DHT22;13090;53.422;7.670;2023-07-13T19:01:27;23.50;57.50
25108;DHT22;13090;53.422;7.670;2023-07-13T19:06:49;23.40;57.90
25108;DHT22;13090;53.422;7.670;2023-07-13T19:12:17;23.30;58.10
25108;DHT22;13090;53.422;7.670;2023-07-13T19:17:38;23.30;58.90
25108;DHT22;13090;53.422;7.670;2023-07-13T19:23:02;23.10;58.70
25108;DHT22;13090;53.422;7.670;2023-07-13T19:28:29;23.10;58.90
25108;DHT22;13090;53.422;7.670;2023-07-13T19:33:52;22.90;59.40
25108;DHT22;13090;53.422;7.670;2023-07-13T19:39:22;22.80;59.40
25108;DHT22;13090;53.422;7.670;2023-07-13T19:44:47;22.70;60.10
25108;DHT22;13090;53.422;7.670;2023-07-13T19:50:10;22.50;60.10
25108;DHT22;13090;53.422;7.670;2023-07-13T19:55:31;22.40;60.60
25108;DHT22;13090;53.422;7.670;2023-07-13T20:00:53;22.20;60.80
25108;DHT22;13090;53.422;7.670;2023-07-13T20:06:27;22.10;61.50
25108;DHT22;13090;53.422;7.670;2023-07-13T20:11:49;21.90;62.60
25108;DHT22;13090;53.422;7.670;2023-07-13T20:17:24;21.70;62.10
25108;DHT22;13090;53.422;7.670;2023-07-13T20:22:46;21.60;63.60
25108;DHT22;13090;53.422;7.670;2023-07-13T20:28:07;21.40;62.90
25108;DHT22;13090;53.422;7.670;2023-07-13T20:33:30;21.30;63.40
25108;DHT22;13090;53.422;7.670;2023-07-13T20:38:50;21.10;64.10
25108;DHT22;13090;53.422;7.670;2023-07-13T20:44:11;21.00;64.20
25108;DHT22;13090;53.422;7.670;2023-07-13T20:49:34;20.80;64.60
25108;DHT22;13090;53.422;7.670;2023-07-13T20:54:55;20.60;65.40
25108;DHT22;13090;53.422;7.670;2023-07-13T21:00:17;20.40;65.70
25108;DHT22;13090;53.422;7.670;2023-07-13T21:05:41;20.20;66.40
25108;DHT22;13090;53.422;7.670;2023-07-13T21:11:02;20.00;67.10
25108;DHT22;13090;53.422;7.670;2023-07-13T21:16:25;19.90;67.10
25108;DHT22;13090;53.422;7.670;2023-07-13T21:21:47;19.80;67.60
25108;DHT22;13090;53.422;7.670;2023-07-13T21:27:08;19.70;68.00
25108;DHT22;13090;53.422;7.670;2023-07-13T21:32:29;19.60;69.00
25108;DHT22;13090;53.422;7.670;2023-07-13T21:37:52;19.50;68.50
25108;DHT22;13090;53.422;7.670;2023-07-13T21:43:14;19.40;70.20
25108;DHT22;13090;53.422;7.670;2023-07-13T21:48:36;19.20;70.00
25108;DHT22;13090;53.422;7.670;2023-07-13T21:53:58;18.90;70.20
25108;DHT22;13090;53.422;7.670;2023-07-13T21:59:23;18.70;71.20
25108;DHT22;13090;53.422;7.670;2023-07-13T22:04:44;18.70;72.00
25108;DHT22;13090;53.422;7.670;2023-07-13T22:10:13;18.80;71.80
25108;DHT22;13090;53.422;7.670;2023-07-13T22:15:34;18.90;72.70
25108;DHT22;13090;53.422;7.670;2023-07-13T22:20:55;18.80;71.50
25108;DHT22;13090;53.422;7.670;2023-07-13T22:26:21;18.80;71.80
25108;DHT22;13090;53.422;7.670;2023-07-13T22:31:42;18.70;72.70
25108;DHT22;13090;53.422;7.670;2023-07-13T22:37:04;18.60;72.20
25108;DHT22;13090;53.422;7.670;2023-07-13T22:42:27;18.50;72.50
25108;DHT22;13090;53.422;7.670;2023-07-13T22:47:48;18.50;72.70
25108;DHT22;13090;53.422;7.670;2023-07-13T22:53:12;18.50;72.80
25108;DHT22;13090;53.422;7.670;2023-07-13T22:58:35;18.50;73.50
25108;DHT22;13090;53.422;7.670;2023-07-13T23:03:58;18.50;73.40
25108;DHT22;13090;53.422;7.670;2023-07-13T23:09:21;18.40;73.20
25108;DHT22;13090;53.422;7.670;2023-07-13T23:14:45;18.30;74.40
25108;DHT22;13090;53.422;7.670;2023-07-13T23:20:22;18.20;73.90
25108;DHT22;13090;53.422;7.670;2023-07-13T23:25:44;18.10;75.90
25108;DHT22;13090;53.422;7.670;2023-07-13T23:31:11;17.90;74.70
25108;DHT22;13090;53.422;7.670;2023-07-13T23:36:34;17.80;76.10
25108;DHT22;13090;53.422;7.670;2023-07-13T23:41:55;17.70;75.40
25108;DHT22;13090;53.422;7.670;2023-07-13T23:47:18;17.60;76.00
25108;DHT22;13090;53.422;7.670;2023-07-13T23:52:39;17.50;76.60
25108;DHT22;13090;53.422;7.670;2023-07-13T23:58:02;17.40;76.50
